sensor_id;sensor_type;location;lat;lon;timestamp;P1;P2;P0
73917;PMS5003;63639;52.280;5.162;2022-10-15T00:01:09;31;27;
73917;PMS5003;63639;52.280;5.162;2022-10-15T00:03:37;31;30;
73917;PMS5003;63639;52.280;5.162;2022-10-15T00:06:05;28;25;
73917;PMS5003;63639;52.280;5.162;2022-10-15T00:08:33;27;26;
73917;PMS5003;63639;52.280;5.162;2022-10-15T00:11:01;29;27;
73917;PMS5003;63639;52.280;5.162;2022-10-15T00:13:29;25;24;
73917;PMS5003;63639;52.280;5.162;2022-10-15T00:15:56;29;29;
73917;PMS5003;63639;52.280;5.162;2022-10-15T00:18:22;25;25;
73917;PMS5003;63639;52.280;5.162;2022-10-15T00:20:49;35;27;
73917;PMS5003;63639;52.280;5.162;2022-10-15T00:23:16;32;30;
73917;PMS5003;63639;52.280;5.162;2022-10-15T00:25:43;28;27;
73917;PMS5003;63639;52.280;5.162;2022-10-15T00:28:10;25;22;
73917;PMS5003;63639;52.280;5.162;2022-10-15T00:30:36;32;30;
73917;PMS5003;63639;52.280;5.162;2022-10-15T00:33:03;30;27;
73917;PMS5003;63639;52.280;5.162;2022-10-15T00:35:29;24;24;
73917;PMS5003;63639;52.280;5.162;2022-10-15T00:37:57;28;27;
73917;PMS5003;63639;52.280;5.162;2022-10-15T00:40:23;25;23;
73917;PMS5003;63639;52.280;5.162;2022-10-15T00:42:50;27;25;
73917;PMS5003;63639;52.280;5.162;2022-10-15T00:45:17;26;26;
73917;PMS5003;63639;52.280;5.162;2022-10-15T00:47:44;26;25;
73917;PMS5003;63639;52.280;5.162;2022-10-15T00:50:15;27;25;
73917;PMS5003;63639;52.280;5.162;2022-10-15T00:52:46;25;24;
73917;PMS5003;63639;52.280;5.162;2022-10-15T00:55:23;30;27;
73917;PMS5003;63639;52.280;5.162;2022-10-15T00:57:52;30;27;
73917;PMS5003;63639;52.280;5.162;2022-10-15T01:01:35;29;29;
73917;PMS5003;63639;52.280;5.162;2022-10-15T01:04:03;27;26;
73917;PMS5003;63639;52.280;5.162;2022-10-15T01:06:32;27;27;
73917;PMS5003;63639;52.280;5.162;2022-10-15T01:08:59;26;26;
73917;PMS5003;63639;52.280;5.162;2022-10-15T01:11:29;32;29;
73917;PMS5003;63639;52.280;5.162;2022-10-15T01:14:07;28;28;
73917;PMS5003;63639;52.280;5.162;2022-10-15T01:16:43;32;29;
73917;PMS5003;63639;52.280;5.162;2022-10-15T01:19:18;32;31;
73917;PMS5003;63639;52.280;5.162;2022-10-15T01:21:58;31;26;
73917;PMS5003;63639;52.280;5.162;2022-10-15T01:24:36;37;32;
73917;PMS5003;63639;52.280;5.162;2022-10-15T01:27:14;34;31;
73917;PMS5003;63639;52.280;5.162;2022-10-15T01:29:51;32;31;
73917;PMS5003;63639;52.280;5.162;2022-10-15T01:32:33;35;32;
73917;PMS5003;63639;52.280;5.162;2022-10-15T01:35:03;39;32;
73917;PMS5003;63639;52.280;5.162;2022-10-15T01:37:40;36;32;
73917;PMS5003;63639;52.280;5.162;2022-10-15T01:40:14;34;33;
73917;PMS5003;63639;52.280;5.162;2022-10-15T01:42:52;34;34;
73917;PMS5003;63639;52.280;5.162;2022-10-15T01:45:35;35;34;
73917;PMS5003;63639;52.280;5.162;2022-10-15T01:48:05;39;36;
73917;PMS5003;63639;52.280;5.162;2022-10-15T01:50:36;36;35;
73917;PMS5003;63639;52.280;5.162;2022-10-15T01:53:07;36;32;
73917;PMS5003;63639;52.280;5.162;2022-10-15T01:55:36;35;32;
73917;PMS5003;63639;52.280;5.162;2022-10-15T01:58:07;39;37;
73917;PMS5003;63639;52.280;5.162;2022-10-15T02:00:37;33;32;
73917;PMS5003;63639;52.280;5.162;2022-10-15T02:03:04;42;36;
73917;PMS5003;63639;52.280;5.162;2022-10-15T02:05:33;43;42;
73917;PMS5003;63639;52.280;5.162;2022-10-15T02:08:06;34;34;
73917;PMS5003;63639;52.280;5.162;2022-10-15T02:10:45;42;41;
73917;PMS5003;63639;52.280;5.162;2022-10-15T02:13:19;38;36;
73917;PMS5003;63639;52.280;5.162;2022-10-15T02:15:53;41;40;
73917;PMS5003;63639;52.280;5.162;2022-10-15T02:18:29;35;35;
73917;PMS5003;63639;52.280;5.162;2022-10-15T02:21:05;35;34;
73917;PMS5003;63639;52.280;5.162;2022-10-15T02:23:40;42;36;
73917;PMS5003;63639;52.280;5.162;2022-10-15T02:26:13;49;43;
73917;PMS5003;63639;52.280;5.162;2022-10-15T02:28:44;38;38;
73917;PMS5003;63639;52.280;5.162;2022-10-15T02:31:15;42;38;
73917;PMS5003;63639;52.280;5.162;2022-10-15T02:33:46;45;40;
73917;PMS5003;63639;52.280;5.162;2022-10-15T02:36:16;46;41;
73917;PMS5003;63639;52.280;5.162;2022-10-15T02:38:44;46;41;
73917;PMS5003;63639;52.280;5.162;2022-10-15T02:41:12;41;38;
73917;PMS5003;63639;52.280;5.162;2022-10-15T02:43:39;40;37;
73917;PMS5003;63639;52.280;5.162;2022-10-15T02:46:07;48;45;
73917;PMS5003;63639;52.280;5.162;2022-10-15T02:48:37;44;41;
73917;PMS5003;63639;52.280;5.162;2022-10-15T02:51:04;44;38;
73917;PMS5003;63639;52.280;5.162;2022-10-15T02:53:31;43;43;
73917;PMS5003;63639;52.280;5.162;2022-10-15T02:55:58;47;44;
73917;PMS5003;63639;52.280;5.162;2022-10-15T02:58:25;43;41;
73917;PMS5003;63639;52.280;5.162;2022-10-15T03:00:52;45;40;
73917;PMS5003;63639;52.280;5.162;2022-10-15T03:03:18;42;39;
73917;PMS5003;63639;52.280;5.162;2022-10-15T03:05:45;47;45;
73917;PMS5003;63639;52.280;5.162;2022-10-15T03:08:12;48;42;
73917;PMS5003;63639;52.280;5.162;2022-10-15T03:10:38;42;38;
73917;PMS5003;63639;52.280;5.162;2022-10-15T03:13:05;47;44;
73917;PMS5003;63639;52.280;5.162;2022-10-15T03:15:32;39;39;
73917;PMS5003;63639;52.280;5.162;2022-10-15T03:17:59;45;43;
73917;PMS5003;63639;52.280;5.162;2022-10-15T03:20:25;47;43;
73917;PMS5003;63639;52.280;5.162;2022-10-15T03:22:52;39;39;
73917;PMS5003;63639;52.280;5.162;2022-10-15T03:25:19;42;40;
73917;PMS5003;63639;52.280;5.162;2022-10-15T03:27:46;47;46;
73917;PMS5003;63639;52.280;5.162;2022-10-15T03:30:13;47;44;
73917;PMS5003;63639;52.280;5.162;2022-10-15T03:32:40;47;43;
73917;PMS5003;63639;52.280;5.162;2022-10-15T03:35:07;43;40;
73917;PMS5003;63639;52.280;5.162;2022-10-15T03:37:34;52;47;
73917;PMS5003;63639;52.280;5.162;2022-10-15T03:40:01;50;47;
73917;PMS5003;63639;52.280;5.162;2022-10-15T03:42:30;46;44;
73917;PMS5003;63639;52.280;5.162;2022-10-15T03:44:57;49;45;
73917;PMS5003;63639;52.280;5.162;2022-10-15T03:47:29;48;45;
73917;PMS5003;63639;52.280;5.162;2022-10-15T03:49:56;43;39;
73917;PMS5003;63639;52.280;5.162;2022-10-15T03:52:24;45;43;
73917;PMS5003;63639;52.280;5.162;2022-10-15T03:54:50;45;44;
73917;PMS5003;63639;52.280;5.162;2022-10-15T03:57:17;40;40;
73917;PMS5003;63639;52.280;5.162;2022-10-15T03:59:44;51;46;
73917;PMS5003;63639;52.280;5.162;2022-10-15T04:02:11;47;42;
73917;PMS5003;63639;52.280;5.162;2022-10-15T04:04:38;42;40;
73917;PMS5003;63639;52.280;5.162;2022-10-15T04:07:04;49;44;
73917;PMS5003;63639;52.280;5.162;2022-10-15T04:09:32;49;44;
73917;PMS5003;63639;52.280;5.162;2022-10-15T04:11:59;50;47;
73917;PMS5003;63639;52.280;5.162;2022-10-15T04:14:26;47;43;
73917;PMS5003;63639;52.280;5.162;2022-10-15T04:16:54;50;48;
73917;PMS5003;63639;52.280;5.162;2022-10-15T04:19:21;52;51;
73917;PMS5003;63639;52.280;5.162;2022-10-15T04:21:48;47;44;
73917;PMS5003;63639;52.280;5.162;2022-10-15T04:24:15;46;43;
73917;PMS5003;63639;52.280;5.162;2022-10-15T04:26:43;46;44;
73917;PMS5003;63639;52.280;5.162;2022-10-15T04:29:09;52;49;
73917;PMS5003;63639;52.280;5.162;2022-10-15T04:31:36;46;44;
73917;PMS5003;63639;52.280;5.162;2022-10-15T04:34:03;56;52;
73917;PMS5003;63639;52.280;5.162;2022-10-15T04:36:31;48;46;
73917;PMS5003;63639;52.280;5.162;2022-10-15T04:38:58;56;50;
73917;PMS5003;63639;52.280;5.162;2022-10-15T04:41:26;49;47;
73917;PMS5003;63639;52.280;5.162;2022-10-15T04:43:52;51;48;
73917;PMS5003;63639;52.280;5.162;2022-10-15T04:46:19;43;40;
73917;PMS5003;63639;52.280;5.162;2022-10-15T04:48:46;51;50;
73917;PMS5003;63639;52.280;5.162;2022-10-15T04:51:14;48;47;
73917;PMS5003;63639;52.280;5.162;2022-10-15T04:53:42;52;51;
73917;PMS5003;63639;52.280;5.162;2022-10-15T04:56:10;51;44;
73917;PMS5003;63639;52.280;5.162;2022-10-15T04:58:39;48;47;
73917;PMS5003;63639;52.280;5.162;2022-10-15T05:01:07;51;51;
73917;PMS5003;63639;52.280;5.162;2022-10-15T05:03:35;56;54;
73917;PMS5003;63639;52.280;5.162;2022-10-15T05:06:03;46;44;
73917;PMS5003;63639;52.280;5.162;2022-10-15T05:08:33;52;50;
73917;PMS5003;63639;52.280;5.162;2022-10-15T05:11:01;50;47;
73917;PMS5003;63639;52.280;5.162;2022-10-15T05:13:29;59;56;
73917;PMS5003;63639;52.280;5.162;2022-10-15T05:15:56;49;44;
73917;PMS5003;63639;52.280;5.162;2022-10-15T05:18:34;51;49;
73917;PMS5003;63639;52.280;5.162;2022-10-15T05:21:01;49;48;
73917;PMS5003;63639;52.280;5.162;2022-10-15T05:23:28;58;52;
73917;PMS5003;63639;52.280;5.162;2022-10-15T05:25:57;49;46;
73917;PMS5003;63639;52.280;5.162;2022-10-15T05:28:25;51;50;
73917;PMS5003;63639;52.280;5.162;2022-10-15T05:30:52;53;49;
73917;PMS5003;63639;52.280;5.162;2022-10-15T05:33:19;51;48;
73917;PMS5003;63639;52.280;5.162;2022-10-15T05:35:46;59;56;
73917;PMS5003;63639;52.280;5.162;2022-10-15T05:38:13;57;53;
73917;PMS5003;63639;52.280;5.162;2022-10-15T05:40:40;58;51;
73917;PMS5003;63639;52.280;5.162;2022-10-15T05:43:12;53;51;
73917;PMS5003;63639;52.280;5.162;2022-10-15T05:45:39;55;51;
73917;PMS5003;63639;52.280;5.162;2022-10-15T05:48:06;58;55;
73917;PMS5003;63639;52.280;5.162;2022-10-15T05:50:33;61;56;
73917;PMS5003;63639;52.280;5.162;2022-10-15T05:53:00;57;54;
73917;PMS5003;63639;52.280;5.162;2022-10-15T05:55:27;57;52;
73917;PMS5003;63639;52.280;5.162;2022-10-15T05:57:53;53;51;
73917;PMS5003;63639;52.280;5.162;2022-10-15T06:00:20;55;50;
73917;PMS5003;63639;52.280;5.162;2022-10-15T06:02:47;52;49;
73917;PMS5003;63639;52.280;5.162;2022-10-15T06:05:14;56;53;
73917;PMS5003;63639;52.280;5.162;2022-10-15T06:07:40;50;49;
73917;PMS5003;63639;52.280;5.162;2022-10-15T06:10:07;62;57;
73917;PMS5003;63639;52.280;5.162;2022-10-15T06:12:34;50;50;
73917;PMS5003;63639;52.280;5.162;2022-10-15T06:15:01;57;52;
73917;PMS5003;63639;52.280;5.162;2022-10-15T06:17:29;53;50;
73917;PMS5003;63639;52.280;5.162;2022-10-15T06:19:56;59;51;
73917;PMS5003;63639;52.280;5.162;2022-10-15T06:22:23;54;47;
73917;PMS5003;63639;52.280;5.162;2022-10-15T06:24:50;59;53;
73917;PMS5003;63639;52.280;5.162;2022-10-15T06:27:17;54;50;
73917;PMS5003;63639;52.280;5.162;2022-10-15T06:29:44;55;51;
73917;PMS5003;63639;52.280;5.162;2022-10-15T06:32:11;55;53;
73917;PMS5003;63639;52.280;5.162;2022-10-15T06:34:39;55;53;
73917;PMS5003;63639;52.280;5.162;2022-10-15T06:37:06;57;53;
73917;PMS5003;63639;52.280;5.162;2022-10-15T06:39:33;57;52;
73917;PMS5003;63639;52.280;5.162;2022-10-15T06:42:00;73;65;
73917;PMS5003;63639;52.280;5.162;2022-10-15T06:44:28;60;58;
73917;PMS5003;63639;52.280;5.162;2022-10-15T06:47:00;64;61;
73917;PMS5003;63639;52.280;5.162;2022-10-15T06:49:27;67;59;
73917;PMS5003;63639;52.280;5.162;2022-10-15T06:51:54;71;64;
73917;PMS5003;63639;52.280;5.162;2022-10-15T06:54:20;57;51;
73917;PMS5003;63639;52.280;5.162;2022-10-15T06:56:47;61;58;
73917;PMS5003;63639;52.280;5.162;2022-10-15T06:59:14;64;61;
73917;PMS5003;63639;52.280;5.162;2022-10-15T07:01:41;66;58;
73917;PMS5003;63639;52.280;5.162;2022-10-15T07:04:08;63;59;
73917;PMS5003;63639;52.280;5.162;2022-10-15T07:06:35;64;59;
73917;PMS5003;63639;52.280;5.162;2022-10-15T07:09:02;61;56;
73917;PMS5003;63639;52.280;5.162;2022-10-15T07:11:30;62;58;
73917;PMS5003;63639;52.280;5.162;2022-10-15T07:13:57;59;57;
73917;PMS5003;63639;52.280;5.162;2022-10-15T07:16:24;61;53;
73917;PMS5003;63639;52.280;5.162;2022-10-15T07:18:51;61;55;
73917;PMS5003;63639;52.280;5.162;2022-10-15T07:21:18;65;56;
73917;PMS5003;63639;52.280;5.162;2022-10-15T07:23:45;58;50;
73917;PMS5003;63639;52.280;5.162;2022-10-15T07:26:12;67;60;
73917;PMS5003;63639;52.280;5.162;2022-10-15T07:28:40;62;57;
73917;PMS5003;63639;52.280;5.162;2022-10-15T07:31:07;63;54;
73917;PMS5003;63639;52.280;5.162;2022-10-15T07:33:34;59;53;
73917;PMS5003;63639;52.280;5.162;2022-10-15T07:36:02;59;54;
73917;PMS5003;63639;52.280;5.162;2022-10-15T07:38:35;55;53;
73917;PMS5003;63639;52.280;5.162;2022-10-15T07:41:02;56;54;
73917;PMS5003;63639;52.280;5.162;2022-10-15T07:43:29;54;46;
73917;PMS5003;63639;52.280;5.162;2022-10-15T07:45:56;60;55;
73917;PMS5003;63639;52.280;5.162;2022-10-15T07:48:23;65;62;
73917;PMS5003;63639;52.280;5.162;2022-10-15T07:50:53;74;64;
73917;PMS5003;63639;52.280;5.162;2022-10-15T07:53:20;67;60;
73917;PMS5003;63639;52.280;5.162;2022-10-15T07:55:47;71;62;
73917;PMS5003;63639;52.280;5.162;2022-10-15T07:58:14;71;62;
73917;PMS5003;63639;52.280;5.162;2022-10-15T08:00:41;67;65;
73917;PMS5003;63639;52.280;5.162;2022-10-15T08:03:07;58;50;
73917;PMS5003;63639;52.280;5.162;2022-10-15T08:05:35;58;52;
73917;PMS5003;63639;52.280;5.162;2022-10-15T08:08:02;57;51;
73917;PMS5003;63639;52.280;5.162;2022-10-15T08:10:29;62;52;
73917;PMS5003;63639;52.280;5.162;2022-10-15T08:12:56;56;52;
73917;PMS5003;63639;52.280;5.162;2022-10-15T08:15:23;59;52;
73917;PMS5003;63639;52.280;5.162;2022-10-15T08:17:50;59;54;
73917;PMS5003;63639;52.280;5.162;2022-10-15T08:20:17;54;50;
73917;PMS5003;63639;52.280;5.162;2022-10-15T08:22:44;54;53;
73917;PMS5003;63639;52.280;5.162;2022-10-15T08:25:11;55;49;
73917;PMS5003;63639;52.280;5.162;2022-10-15T08:27:38;50;46;
73917;PMS5003;63639;52.280;5.162;2022-10-15T08:30:04;53;49;
73917;PMS5003;63639;52.280;5.162;2022-10-15T08:32:32;54;48;
73917;PMS5003;63639;52.280;5.162;2022-10-15T08:34:59;46;40;
73917;PMS5003;63639;52.280;5.162;2022-10-15T08:37:26;59;49;
73917;PMS5003;63639;52.280;5.162;2022-10-15T08:39:52;53;47;
73917;PMS5003;63639;52.280;5.162;2022-10-15T08:42:20;49;45;
73917;PMS5003;63639;52.280;5.162;2022-10-15T08:44:55;51;44;
73917;PMS5003;63639;52.280;5.162;2022-10-15T08:47:28;54;46;
73917;PMS5003;63639;52.280;5.162;2022-10-15T08:50:00;43;37;
73917;PMS5003;63639;52.280;5.162;2022-10-15T08:52:40;48;43;
73917;PMS5003;63639;52.280;5.162;2022-10-15T08:55:10;48;43;
73917;PMS5003;63639;52.280;5.162;2022-10-15T08:57:41;44;38;
73917;PMS5003;63639;52.280;5.162;2022-10-15T09:00:12;42;37;
73917;PMS5003;63639;52.280;5.162;2022-10-15T09:02:45;51;40;
73917;PMS5003;63639;52.280;5.162;2022-10-15T09:05:25;42;40;
73917;PMS5003;63639;52.280;5.162;2022-10-15T09:07:57;43;35;
73917;PMS5003;63639;52.280;5.162;2022-10-15T09:10:31;42;40;
73917;PMS5003;63639;52.280;5.162;2022-10-15T09:13:04;41;39;
73917;PMS5003;63639;52.280;5.162;2022-10-15T09:15:40;45;41;
73917;PMS5003;63639;52.280;5.162;2022-10-15T09:18:16;41;34;
73917;PMS5003;63639;52.280;5.162;2022-10-15T09:20:46;34;31;
73917;PMS5003;63639;52.280;5.162;2022-10-15T09:23:16;34;31;
73917;PMS5003;63639;52.280;5.162;2022-10-15T09:25:48;29;28;
73917;PMS5003;63639;52.280;5.162;2022-10-15T09:28:21;35;31;
73917;PMS5003;63639;52.280;5.162;2022-10-15T09:30:54;34;31;
73917;PMS5003;63639;52.280;5.162;2022-10-15T09:33:28;37;33;
73917;PMS5003;63639;52.280;5.162;2022-10-15T09:36:05;33;30;
73917;PMS5003;63639;52.280;5.162;2022-10-15T09:38:41;33;30;
73917;PMS5003;63639;52.280;5.162;2022-10-15T09:41:18;32;29;
73917;PMS5003;63639;52.280;5.162;2022-10-15T09:43:56;34;28;
73917;PMS5003;63639;52.280;5.162;2022-10-15T09:46:24;29;29;
73917;PMS5003;63639;52.280;5.162;2022-10-15T09:49:02;28;26;
73917;PMS5003;63639;52.280;5.162;2022-10-15T09:51:33;28;27;
73917;PMS5003;63639;52.280;5.162;2022-10-15T09:54:07;27;27;
73917;PMS5003;63639;52.280;5.162;2022-10-15T09:56:42;31;29;
73917;PMS5003;63639;52.280;5.162;2022-10-15T09:59:14;29;26;
73917;PMS5003;63639;52.280;5.162;2022-10-15T10:01:42;28;24;
73917;PMS5003;63639;52.280;5.162;2022-10-15T10:04:23;28;26;
73917;PMS5003;63639;52.280;5.162;2022-10-15T10:06:52;28;27;
73917;PMS5003;63639;52.280;5.162;2022-10-15T10:09:22;27;25;
73917;PMS5003;63639;52.280;5.162;2022-10-15T10:11:50;29;27;
73917;PMS5003;63639;52.280;5.162;2022-10-15T10:14:22;30;27;
73917;PMS5003;63639;52.280;5.162;2022-10-15T10:17:05;29;24;
73917;PMS5003;63639;52.280;5.162;2022-10-15T10:19:40;23;23;
73917;PMS5003;63639;52.280;5.162;2022-10-15T10:22:11;30;29;
73917;PMS5003;63639;52.280;5.162;2022-10-15T10:24:40;24;22;
73917;PMS5003;63639;52.280;5.162;2022-10-15T10:27:17;24;23;
73917;PMS5003;63639;52.280;5.162;2022-10-15T10:29:48;22;21;
73917;PMS5003;63639;52.280;5.162;2022-10-15T10:32:21;27;21;
73917;PMS5003;63639;52.280;5.162;2022-10-15T10:34:51;24;24;
73917;PMS5003;63639;52.280;5.162;2022-10-15T10:37:20;23;23;
73917;PMS5003;63639;52.280;5.162;2022-10-15T10:39:50;23;22;
73917;PMS5003;63639;52.280;5.162;2022-10-15T10:42:27;21;20;
73917;PMS5003;63639;52.280;5.162;2022-10-15T10:45:10;26;23;
73917;PMS5003;63639;52.280;5.162;2022-10-15T10:47:43;24;22;
73917;PMS5003;63639;52.280;5.162;2022-10-15T10:50:24;20;20;
73917;PMS5003;63639;52.280;5.162;2022-10-15T10:52:54;28;22;
73917;PMS5003;63639;52.280;5.162;2022-10-15T10:55:22;24;20;
73917;PMS5003;63639;52.280;5.162;2022-10-15T10:57:57;26;25;
73917;PMS5003;63639;52.280;5.162;2022-10-15T11:00:28;18;18;
73917;PMS5003;63639;52.280;5.162;2022-10-15T11:03:02;21;21;
73917;PMS5003;63639;52.280;5.162;2022-10-15T11:05:30;20;20;
73917;PMS5003;63639;52.280;5.162;2022-10-15T11:08:02;23;22;
73917;PMS5003;63639;52.280;5.162;2022-10-15T11:10:40;20;20;
73917;PMS5003;63639;52.280;5.162;2022-10-15T11:13:33;18;18;
73917;PMS5003;63639;52.280;5.162;2022-10-15T11:16:13;19;18;
73917;PMS5003;63639;52.280;5.162;2022-10-15T11:18:48;20;19;
73917;PMS5003;63639;52.280;5.162;2022-10-15T11:21:35;18;15;
73917;PMS5003;63639;52.280;5.162;2022-10-15T11:24:17;19;17;
73917;PMS5003;63639;52.280;5.162;2022-10-15T11:26:55;18;17;
73917;PMS5003;63639;52.280;5.162;2022-10-15T11:29:32;18;16;
73917;PMS5003;63639;52.280;5.162;2022-10-15T11:32:09;22;19;
73917;PMS5003;63639;52.280;5.162;2022-10-15T11:34:53;21;18;
73917;PMS5003;63639;52.280;5.162;2022-10-15T11:37:35;15;15;
73917;PMS5003;63639;52.280;5.162;2022-10-15T11:40:12;19;18;
73917;PMS5003;63639;52.280;5.162;2022-10-15T11:42:44;18;18;
73917;PMS5003;63639;52.280;5.162;2022-10-15T11:45:53;13;13;
73917;PMS5003;63639;52.280;5.162;2022-10-15T11:48:30;18;15;
73917;PMS5003;63639;52.280;5.162;2022-10-15T11:51:08;15;12;
73917;PMS5003;63639;52.280;5.162;2022-10-15T11:53:49;18;15;
73917;PMS5003;63639;52.280;5.162;2022-10-15T11:56:25;16;14;
73917;PMS5003;63639;52.280;5.162;2022-10-15T11:58:57;15;15;
73917;PMS5003;63639;52.280;5.162;2022-10-15T12:01:32;14;14;
73917;PMS5003;63639;52.280;5.162;2022-10-15T12:04:03;17;15;
73917;PMS5003;63639;52.280;5.162;2022-10-15T12:06:38;14;12;
73917;PMS5003;63639;52.280;5.162;2022-10-15T12:09:08;14;13;
73917;PMS5003;63639;52.280;5.162;2022-10-15T12:11:43;15;13;
73917;PMS5003;63639;52.280;5.162;2022-10-15T12:14:17;13;13;
73917;PMS5003;63639;52.280;5.162;2022-10-15T12:16:53;10;10;
73917;PMS5003;63639;52.280;5.162;2022-10-15T12:19:27;15;13;
73917;PMS5003;63639;52.280;5.162;2022-10-15T12:22:03;14;13;
73917;PMS5003;63639;52.280;5.162;2022-10-15T12:24:48;12;12;
73917;PMS5003;63639;52.280;5.162;2022-10-15T12:27:20;12;10;
73917;PMS5003;63639;52.280;5.162;2022-10-15T12:29:49;11;11;
73917;PMS5003;63639;52.280;5.162;2022-10-15T12:32:20;12;12;
73917;PMS5003;63639;52.280;5.162;2022-10-15T12:34:52;11;11;
73917;PMS5003;63639;52.280;5.162;2022-10-15T12:37:22;11;11;
73917;PMS5003;63639;52.280;5.162;2022-10-15T12:39:53;11;11;
73917;PMS5003;63639;52.280;5.162;2022-10-15T12:42:23;11;11;
73917;PMS5003;63639;52.280;5.162;2022-10-15T12:44:53;12;12;
73917;PMS5003;63639;52.280;5.162;2022-10-15T12:47:44;13;12;
73917;PMS5003;63639;52.280;5.162;2022-10-15T12:50:15;14;12;
73917;PMS5003;63639;52.280;5.162;2022-10-15T12:53:00;16;13;
73917;PMS5003;63639;52.280;5.162;2022-10-15T12:55:31;15;13;
73917;PMS5003;63639;52.280;5.162;2022-10-15T12:58:01;11;11;
73917;PMS5003;63639;52.280;5.162;2022-10-15T13:00:32;12;10;
73917;PMS5003;63639;52.280;5.162;2022-10-15T13:03:09;13;13;
73917;PMS5003;63639;52.280;5.162;2022-10-15T13:05:42;13;13;
73917;PMS5003;63639;52.280;5.162;2022-10-15T13:08:11;11;11;
73917;PMS5003;63639;52.280;5.162;2022-10-15T13:10:45;10;10;
73917;PMS5003;63639;52.280;5.162;2022-10-15T13:13:15;16;12;
73917;PMS5003;63639;52.280;5.162;2022-10-15T13:15:54;12;12;
73917;PMS5003;63639;52.280;5.162;2022-10-15T13:18:24;14;13;
73917;PMS5003;63639;52.280;5.162;2022-10-15T13:20:52;15;12;
73917;PMS5003;63639;52.280;5.162;2022-10-15T13:23:20;14;14;
73917;PMS5003;63639;52.280;5.162;2022-10-15T13:25:50;12;12;
73917;PMS5003;63639;52.280;5.162;2022-10-15T13:28:27;15;14;
73917;PMS5003;63639;52.280;5.162;2022-10-15T13:30:55;12;12;
73917;PMS5003;63639;52.280;5.162;2022-10-15T13:33:22;11;10;
73917;PMS5003;63639;52.280;5.162;2022-10-15T13:35:49;13;11;
73917;PMS5003;63639;52.280;5.162;2022-10-15T13:38:18;15;14;
73917;PMS5003;63639;52.280;5.162;2022-10-15T13:40:46;14;14;
73917;PMS5003;63639;52.280;5.162;2022-10-15T13:43:15;15;12;
73917;PMS5003;63639;52.280;5.162;2022-10-15T13:45:45;12;12;
73917;PMS5003;63639;52.280;5.162;2022-10-15T13:48:15;13;13;
73917;PMS5003;63639;52.280;5.162;2022-10-15T13:50:45;12;12;
73917;PMS5003;63639;52.280;5.162;2022-10-15T13:53:15;15;14;
73917;PMS5003;63639;52.280;5.162;2022-10-15T13:55:48;13;13;
73917;PMS5003;63639;52.280;5.162;2022-10-15T13:58:18;13;13;
73917;PMS5003;63639;52.280;5.162;2022-10-15T14:00:48;12;10;
73917;PMS5003;63639;52.280;5.162;2022-10-15T14:03:19;14;14;
73917;PMS5003;63639;52.280;5.162;2022-10-15T14:05:53;13;12;
73917;PMS5003;63639;52.280;5.162;2022-10-15T14:08:23;12;12;
73917;PMS5003;63639;52.280;5.162;2022-10-15T14:10:53;12;10;
73917;PMS5003;63639;52.280;5.162;2022-10-15T14:13:23;10;9;
73917;PMS5003;63639;52.280;5.162;2022-10-15T14:15:51;11;11;
73917;PMS5003;63639;52.280;5.162;2022-10-15T14:18:27;13;12;
73917;PMS5003;63639;52.280;5.162;2022-10-15T14:20:57;11;11;
73917;PMS5003;63639;52.280;5.162;2022-10-15T14:23:24;11;9;
73917;PMS5003;63639;52.280;5.162;2022-10-15T14:25:53;9;9;
73917;PMS5003;63639;52.280;5.162;2022-10-15T14:28:21;8;8;
73917;PMS5003;63639;52.280;5.162;2022-10-15T14:30:49;7;7;
73917;PMS5003;63639;52.280;5.162;2022-10-15T14:33:29;9;8;
73917;PMS5003;63639;52.280;5.162;2022-10-15T14:36:07;8;7;
73917;PMS5003;63639;52.280;5.162;2022-10-15T14:38:37;9;8;
73917;PMS5003;63639;52.280;5.162;2022-10-15T14:41:14;5;5;
73917;PMS5003;63639;52.280;5.162;2022-10-15T14:43:58;6;6;
73917;PMS5003;63639;52.280;5.162;2022-10-15T14:46:26;9;8;
73917;PMS5003;63639;52.280;5.162;2022-10-15T14:48:59;5;5;
73917;PMS5003;63639;52.280;5.162;2022-10-15T14:51:26;4;4;
73917;PMS5003;63639;52.280;5.162;2022-10-15T14:53:59;4;3;
73917;PMS5003;63639;52.280;5.162;2022-10-15T14:56:28;5;3;
73917;PMS5003;63639;52.280;5.162;2022-10-15T14:58:57;4;4;
73917;PMS5003;63639;52.280;5.162;2022-10-15T15:01:24;3;3;
73917;PMS5003;63639;52.280;5.162;2022-10-15T15:03:51;5;4;
73917;PMS5003;63639;52.280;5.162;2022-10-15T15:06:19;5;5;
73917;PMS5003;63639;52.280;5.162;2022-10-15T15:08:46;3;3;
73917;PMS5003;63639;52.280;5.162;2022-10-15T15:11:13;3;3;
73917;PMS5003;63639;52.280;5.162;2022-10-15T15:13:43;2;2;
73917;PMS5003;63639;52.280;5.162;2022-10-15T15:16:11;3;3;
73917;PMS5003;63639;52.280;5.162;2022-10-15T15:18:39;6;6;
73917;PMS5003;63639;52.280;5.162;2022-10-15T15:21:06;4;3;
73917;PMS5003;63639;52.280;5.162;2022-10-15T15:23:36;3;3;
73917;PMS5003;63639;52.280;5.162;2022-10-15T15:26:03;4;4;
73917;PMS5003;63639;52.280;5.162;2022-10-15T15:28:29;5;2;
73917;PMS5003;63639;52.280;5.162;2022-10-15T15:30:57;2;2;
73917;PMS5003;63639;52.280;5.162;2022-10-15T15:33:27;2;2;
73917;PMS5003;63639;52.280;5.162;2022-10-15T15:35:55;2;2;
73917;PMS5003;63639;52.280;5.162;2022-10-15T15:38:26;3;3;
73917;PMS5003;63639;52.280;5.162;2022-10-15T15:40:52;2;2;
73917;PMS5003;63639;52.280;5.162;2022-10-15T15:43:19;3;3;
73917;PMS5003;63639;52.280;5.162;2022-10-15T15:45:46;3;3;
73917;PMS5003;63639;52.280;5.162;2022-10-15T15:48:13;3;2;
73917;PMS5003;63639;52.280;5.162;2022-10-15T15:50:40;4;3;
73917;PMS5003;63639;52.280;5.162;2022-10-15T15:53:07;3;3;
73917;PMS5003;63639;52.280;5.162;2022-10-15T15:55:37;4;4;
73917;PMS5003;63639;52.280;5.162;2022-10-15T15:58:03;3;3;
73917;PMS5003;63639;52.280;5.162;2022-10-15T16:00:30;2;2;
73917;PMS5003;63639;52.280;5.162;2022-10-15T16:02:58;2;2;
73917;PMS5003;63639;52.280;5.162;2022-10-15T16:05:24;3;3;
73917;PMS5003;63639;52.280;5.162;2022-10-15T16:07:51;3;3;
73917;PMS5003;63639;52.280;5.162;2022-10-15T16:10:18;3;3;
73917;PMS5003;63639;52.280;5.162;2022-10-15T16:12:45;3;3;
73917;PMS5003;63639;52.280;5.162;2022-10-15T16:15:11;3;3;
73917;PMS5003;63639;52.280;5.162;2022-10-15T16:17:38;2;2;
73917;PMS5003;63639;52.280;5.162;2022-10-15T16:20:05;2;2;
73917;PMS5003;63639;52.280;5.162;2022-10-15T16:22:33;3;3;
73917;PMS5003;63639;52.280;5.162;2022-10-15T16:25:01;3;3;
73917;PMS5003;63639;52.280;5.162;2022-10-15T16:27:29;2;2;
73917;PMS5003;63639;52.280;5.162;2022-10-15T16:29:56;4;3;
73917;PMS5003;63639;52.280;5.162;2022-10-15T16:32:24;5;3;
73917;PMS5003;63639;52.280;5.162;2022-10-15T16:34:56;2;2;
73917;PMS5003;63639;52.280;5.162;2022-10-15T16:37:23;3;3;
73917;PMS5003;63639;52.280;5.162;2022-10-15T16:39:49;2;2;
73917;PMS5003;63639;52.280;5.162;2022-10-15T16:42:16;4;3;